createdAt,value
2018-11-05T00:00:29.918Z,114.10
2018-11-05T00:01:29.910Z,110.10
2018-11-05T00:02:29.914Z,106.90
2018-11-05T00:03:29.911Z,112.70
2018-11-05T00:04:29.895Z,116.90
2018-11-05T00:05:29.893Z,112.00
2018-11-05T00:06:29.884Z,112.50
2018-11-05T00:07:29.878Z,113.60
2018-11-05T00:08:29.874Z,114.60
2018-11-05T00:09:29.869Z,114.10
2018-11-05T00:10:29.865Z,116.20
2018-11-05T00:11:29.861Z,117.50
2018-11-05T00:12:29.853Z,118.20
2018-11-05T00:13:29.848Z,115.10
2018-11-05T00:14:29.844Z,114.30
2018-11-05T00:15:29.837Z,113.10
2018-11-05T00:16:29.832Z,123.60
2018-11-05T00:17:29.830Z,121.50
2018-11-05T00:18:29.824Z,118.50
2018-11-05T00:19:29.823Z,118.30
2018-11-05T00:20:29.986Z,118.90
2018-11-05T00:21:29.813Z,121.30
2018-11-05T00:22:29.802Z,122.80
2018-11-05T00:23:29.798Z,116.00
2018-11-05T00:24:29.792Z,120.60
2018-11-05T00:25:29.788Z,121.40
2018-11-05T00:26:29.783Z,122.80
2018-11-05T00:27:29.785Z,117.60
2018-11-05T00:28:29.774Z,124.00
2018-11-05T00:29:29.777Z,128.10
2018-11-05T00:30:29.766Z,120.10
2018-11-05T00:31:29.760Z,119.90
2018-11-05T00:32:29.755Z,121.30
2018-11-05T00:33:29.749Z,124.80
2018-11-05T00:34:29.742Z,127.80
2018-11-05T00:35:29.738Z,119.80
2018-11-05T00:36:30.360Z,126.20
2018-11-05T00:37:29.729Z,127.40
2018-11-05T00:38:29.724Z,128.20
2018-11-05T00:39:29.718Z,126.60
2018-11-05T00:40:29.711Z,121.00
2018-11-05T00:41:29.703Z,127.50
2018-11-05T00:42:29.703Z,131.60
2018-11-05T00:43:29.698Z,123.40
2018-11-05T00:44:29.696Z,128.20
2018-11-05T00:45:29.707Z,129.60
2018-11-05T00:46:29.683Z,131.40
2018-11-05T00:47:29.678Z,130.30
2018-11-05T00:48:29.671Z,129.50
2018-11-05T00:49:29.667Z,131.50
2018-11-05T00:50:29.660Z,136.80
2018-11-05T00:51:29.656Z,137.40
2018-11-05T00:52:29.650Z,135.90
2018-11-05T00:53:29.649Z,139.50
2018-11-05T00:54:29.649Z,136.20
2018-11-05T00:55:29.637Z,134.00
2018-11-05T00:56:29.632Z,148.40
2018-11-05T00:57:29.627Z,146.30
2018-11-05T00:58:29.622Z,147.30
2018-11-05T00:59:29.617Z,145.10
2018-11-05T01:00:29.608Z,140.20
2018-11-05T01:01:29.610Z,137.80
2018-11-05T01:02:29.600Z,146.80
2018-11-05T01:03:29.595Z,148.50
2018-11-05T01:04:29.592Z,149.00
2018-11-05T01:05:29.588Z,144.30
2018-11-05T01:06:29.581Z,144.40
2018-11-05T01:07:29.572Z,149.40
2018-11-05T01:08:29.570Z,149.10
2018-11-05T01:09:29.563Z,152.20
2018-11-05T01:10:29.560Z,153.40
2018-11-05T01:11:29.559Z,149.60
2018-11-05T01:12:29.550Z,149.30
2018-11-05T01:13:29.542Z,159.20
2018-11-05T01:14:29.537Z,153.20
2018-11-05T01:15:29.533Z,154.50
2018-11-05T01:16:29.531Z,153.40
2018-11-05T01:17:29.523Z,159.40
2018-11-05T01:18:29.519Z,154.00
2018-11-05T01:19:29.515Z,159.70
2018-11-05T01:20:29.510Z,145.00
2018-11-05T01:21:29.503Z,152.20
2018-11-05T01:22:29.497Z,150.90
2018-11-05T01:23:29.492Z,153.80
2018-11-05T01:24:29.488Z,154.70
2018-11-05T01:25:29.481Z,152.10
2018-11-05T01:26:29.477Z,160.40
2018-11-05T01:27:29.472Z,145.30
2018-11-05T01:28:29.468Z,152.70
2018-11-05T01:29:29.461Z,156.30
2018-11-05T01:30:29.456Z,151.50
2018-11-05T01:31:29.456Z,153.80
2018-11-05T01:32:29.444Z,150.50
2018-11-05T01:33:29.441Z,149.40
2018-11-05T01:34:29.435Z,147.00
2018-11-05T01:35:29.430Z,151.30
2018-11-05T01:36:29.428Z,151.60
2018-11-05T01:37:29.425Z,155.00
2018-11-05T01:38:29.415Z,149.00
2018-11-05T01:39:29.416Z,152.90
2018-11-05T01:40:29.407Z,155.30
2018-11-05T01:41:29.399Z,149.30
2018-11-05T01:42:29.395Z,160.50
2018-11-05T01:43:29.390Z,153.50
2018-11-05T01:44:29.385Z,158.60
2018-11-05T01:45:29.380Z,155.30
2018-11-05T01:46:29.383Z,155.20
2018-11-05T01:47:29.371Z,154.90
2018-11-05T01:48:29.364Z,155.20
2018-11-05T01:49:29.359Z,155.70
2018-11-05T01:50:29.352Z,151.10
2018-11-05T01:51:29.352Z,145.90
2018-11-05T01:52:29.342Z,153.50
2018-11-05T01:53:29.338Z,149.30
2018-11-05T01:54:29.334Z,152.50
2018-11-05T01:55:29.330Z,154.80
2018-11-05T01:56:29.322Z,152.00
2018-11-05T01:57:29.322Z,151.90
2018-11-05T01:58:29.314Z,154.30
2018-11-05T01:59:29.309Z,155.70
2018-11-05T02:00:29.302Z,160.30
2018-11-05T02:01:29.297Z,157.70
2018-11-05T02:02:29.291Z,159.00
2018-11-05T02:03:29.297Z,163.40
2018-11-05T02:04:29.285Z,163.90
2018-11-05T02:05:29.280Z,162.10
2018-11-05T02:06:29.272Z,161.60
2018-11-05T02:07:29.268Z,163.40
2018-11-05T02:08:29.259Z,160.30
2018-11-05T02:09:29.256Z,159.60
2018-11-05T02:10:29.426Z,161.50
2018-11-05T02:11:29.250Z,161.20
2018-11-05T02:12:29.242Z,160.80
2018-11-05T02:13:29.391Z,163.90
2018-11-05T02:14:29.233Z,171.50
2018-11-05T02:15:29.227Z,161.00
2018-11-05T02:16:29.223Z,158.00
2018-11-05T02:17:29.215Z,162.10
2018-11-05T02:18:29.211Z,157.30
2018-11-05T02:19:29.208Z,160.50
2018-11-05T02:20:29.207Z,158.60
2018-11-05T02:21:29.196Z,157.90
2018-11-05T02:22:29.192Z,156.10
2018-11-05T02:23:29.187Z,155.30
2018-11-05T02:24:29.183Z,157.10
2018-11-05T02:25:29.175Z,156.70
2018-11-05T02:26:29.171Z,149.50
2018-11-05T02:27:29.167Z,156.50
2018-11-05T02:28:29.161Z,153.60
2018-11-05T02:29:29.159Z,150.40
2018-11-05T02:30:29.152Z,153.60
2018-11-05T02:31:29.146Z,158.40
2018-11-05T02:32:29.142Z,155.80
2018-11-05T02:33:29.143Z,143.40
2018-11-05T02:34:29.129Z,149.60
2018-11-05T02:35:29.126Z,140.50
2018-11-05T02:36:29.121Z,143.90
2018-11-05T02:37:29.116Z,153.40
2018-11-05T02:38:29.118Z,147.00
2018-11-05T02:39:29.106Z,146.60
2018-11-05T02:40:29.099Z,136.70
2018-11-05T02:41:29.098Z,145.30
2018-11-05T02:42:29.086Z,137.50
2018-11-05T02:43:29.086Z,144.00
2018-11-05T02:44:29.089Z,136.10
2018-11-05T02:45:29.075Z,139.20
2018-11-05T02:46:29.072Z,138.50
2018-11-05T02:47:29.066Z,132.20
2018-11-05T02:48:29.067Z,133.60
2018-11-05T02:49:29.057Z,134.60
2018-11-05T02:50:29.048Z,135.00
2018-11-05T02:51:29.041Z,130.80
2018-11-05T02:52:29.038Z,130.10
2018-11-05T02:53:29.033Z,136.90
2018-11-05T02:54:29.040Z,134.10
2018-11-05T02:55:29.023Z,134.00
2018-11-05T02:56:29.017Z,131.10
2018-11-05T02:57:29.014Z,136.70
2018-11-05T02:58:29.009Z,129.80
2018-11-05T02:59:29.006Z,132.90
2018-11-05T03:00:28.998Z,133.40
2018-11-05T03:01:29.001Z,134.00
2018-11-05T03:02:28.989Z,129.00
2018-11-05T03:03:28.984Z,133.30
2018-11-05T03:04:28.979Z,135.70
2018-11-05T03:05:28.972Z,142.90
2018-11-05T03:06:28.970Z,135.50
2018-11-05T03:07:28.962Z,133.40
2018-11-05T03:08:28.958Z,130.10
2018-11-05T03:09:28.951Z,136.70
2018-11-05T03:10:28.953Z,141.00
2018-11-05T03:11:28.942Z,137.90
2018-11-05T03:12:28.938Z,131.30
2018-11-05T03:13:29.897Z,138.40
2018-11-05T03:14:28.927Z,134.50
2018-11-05T03:15:28.921Z,134.00
2018-11-05T03:16:28.915Z,135.20
2018-11-05T03:17:28.914Z,129.20
2018-11-05T03:18:28.908Z,135.80
2018-11-05T03:19:28.922Z,131.30
2018-11-05T03:20:28.896Z,136.90
2018-11-05T03:21:28.897Z,139.10
2018-11-05T03:22:28.886Z,137.40
2018-11-05T03:23:28.881Z,135.40
2018-11-05T03:24:28.876Z,128.80
2018-11-05T03:25:28.871Z,135.40
2018-11-05T03:26:28.866Z,130.00
2018-11-05T03:27:28.865Z,137.40
2018-11-05T03:28:28.860Z,139.50
2018-11-05T03:29:28.852Z,130.50
2018-11-05T03:30:28.846Z,132.50
2018-11-05T03:31:28.843Z,128.40
2018-11-05T03:32:28.841Z,131.50
2018-11-05T03:33:28.830Z,130.40
2018-11-05T03:34:28.828Z,132.50
2018-11-05T03:35:28.820Z,126.80
2018-11-05T03:36:28.816Z,125.60
2018-11-05T03:37:28.812Z,124.70
2018-11-05T03:38:28.807Z,136.90
2018-11-05T03:39:28.800Z,135.60
2018-11-05T03:40:28.795Z,134.70
2018-11-05T03:41:28.791Z,132.90
2018-11-05T03:42:28.787Z,135.60
2018-11-05T03:43:28.782Z,132.40
2018-11-05T03:44:28.776Z,130.50
2018-11-05T03:45:28.776Z,133.70
2018-11-05T03:46:28.767Z,130.90
2018-11-05T03:47:28.765Z,128.90
2018-11-05T03:48:28.756Z,130.70
2018-11-05T03:49:28.752Z,132.40
2018-11-05T03:50:28.745Z,134.30
2018-11-05T03:51:28.741Z,130.90
2018-11-05T03:52:28.739Z,129.70
2018-11-05T03:53:28.738Z,130.50
2018-11-05T03:54:28.727Z,128.40
2018-11-05T03:55:28.778Z,128.70
2018-11-05T03:56:28.765Z,126.80
2018-11-05T03:57:28.710Z,131.00
2018-11-05T03:58:28.707Z,121.50
2018-11-05T03:59:28.703Z,130.10
2018-11-05T04:00:28.700Z,131.80
2018-11-05T04:01:28.691Z,132.20
2018-11-05T04:02:28.687Z,125.00
2018-11-05T04:03:28.767Z,124.00
2018-11-05T04:04:28.674Z,129.80
2018-11-05T04:05:28.672Z,128.10
2018-11-05T04:06:28.674Z,122.00
2018-11-05T04:07:28.662Z,122.80
2018-11-05T04:08:28.656Z,123.10
2018-11-05T04:09:28.658Z,124.40
2018-11-05T04:10:28.649Z,118.80
2018-11-05T04:11:28.643Z,120.70
2018-11-05T04:12:28.636Z,116.30
2018-11-05T04:13:28.632Z,114.40
2018-11-05T04:14:29.411Z,111.10
2018-11-05T04:15:28.706Z,115.20
2018-11-05T04:16:28.617Z,114.30
2018-11-05T04:17:28.612Z,117.50
2018-11-05T04:18:28.607Z,114.00
2018-11-05T04:19:28.602Z,115.10
2018-11-05T04:20:28.596Z,116.20
2018-11-05T04:21:28.603Z,115.40
2018-11-05T04:22:28.592Z,117.70
2018-11-05T04:23:28.582Z,114.20
2018-11-05T04:24:28.577Z,112.00
2018-11-05T04:25:28.575Z,110.30
2018-11-05T04:26:28.564Z,104.10
2018-11-05T04:27:28.567Z,111.70
2018-11-05T04:28:28.559Z,112.30
2018-11-05T04:29:28.551Z,105.00
2018-11-05T04:30:28.548Z,106.30
2018-11-05T04:31:28.550Z,108.40
2018-11-05T04:32:28.561Z,103.60
2018-11-05T04:33:28.531Z,106.40
2018-11-05T04:34:28.529Z,102.90
2018-11-05T04:35:28.524Z,98.90
2018-11-05T04:36:28.516Z,107.40
2018-11-05T04:37:28.510Z,104.60
2018-11-05T04:38:28.507Z,102.00
2018-11-05T04:39:28.502Z,100.50
2018-11-05T04:40:28.496Z,100.30
2018-11-05T04:41:28.494Z,97.80
2018-11-05T04:42:28.486Z,96.30
2018-11-05T04:43:28.482Z,98.30
2018-11-05T04:44:28.477Z,103.70
2018-11-05T04:45:28.472Z,96.10
2018-11-05T04:46:28.467Z,92.60
2018-11-05T04:47:28.463Z,93.70
2018-11-05T04:48:28.456Z,92.10
2018-11-05T04:49:28.452Z,90.80
2018-11-05T04:50:28.447Z,91.40
2018-11-05T04:51:28.443Z,88.50
2018-11-05T04:52:28.436Z,93.20
2018-11-05T04:53:28.434Z,88.30
2018-11-05T04:54:28.427Z,92.30
2018-11-05T04:55:28.432Z,89.10
2018-11-05T04:56:28.421Z,98.10
2018-11-05T04:57:28.419Z,85.20
2018-11-05T04:58:28.409Z,87.60
2018-11-05T04:59:28.402Z,85.40
2018-11-05T05:00:28.396Z,84.70
2018-11-05T05:01:28.386Z,84.40
2018-11-05T05:02:28.386Z,83.50
2018-11-05T05:03:28.435Z,86.00
2018-11-05T05:04:28.377Z,85.70
2018-11-05T05:05:28.371Z,86.90
2018-11-05T05:06:28.369Z,83.80
2018-11-05T05:07:28.362Z,81.30
2018-11-05T05:08:28.356Z,85.10
2018-11-05T05:09:28.354Z,87.00
2018-11-05T05:10:28.347Z,82.70
2018-11-05T05:11:28.342Z,83.20
2018-11-05T05:12:28.337Z,81.40
2018-11-05T05:13:28.337Z,82.60
2018-11-05T05:14:28.330Z,81.80
2018-11-05T05:15:28.321Z,80.90
2018-11-05T05:16:28.315Z,82.60
2018-11-05T05:17:28.309Z,79.60
2018-11-05T05:18:28.307Z,85.40
2018-11-05T05:19:28.302Z,82.30
2018-11-05T05:20:28.928Z,80.10
2018-11-05T05:21:28.293Z,81.50
2018-11-05T05:22:28.368Z,79.90
2018-11-05T05:23:28.281Z,79.80
2018-11-05T05:24:28.274Z,83.00
2018-11-05T05:25:28.297Z,78.30
2018-11-05T05:26:28.269Z,79.60
2018-11-05T05:27:28.262Z,81.60
2018-11-05T05:28:28.257Z,81.10
2018-11-05T05:29:28.251Z,80.50
2018-11-05T05:30:28.250Z,81.30
2018-11-05T05:31:28.242Z,79.20
2018-11-05T05:32:28.241Z,83.50
2018-11-05T05:33:28.292Z,80.90
2018-11-05T05:34:28.226Z,83.40
2018-11-05T05:35:28.227Z,79.70
2018-11-05T05:36:28.215Z,79.70
2018-11-05T05:37:28.208Z,82.00
2018-11-05T05:38:28.206Z,82.90
2018-11-05T05:39:28.201Z,85.70
2018-11-05T05:40:28.195Z,82.90
2018-11-05T05:41:28.357Z,80.70
2018-11-05T05:42:28.185Z,80.40
2018-11-05T05:43:28.185Z,80.70
2018-11-05T05:44:28.173Z,78.90
2018-11-05T05:45:28.170Z,82.60
2018-11-05T05:46:28.231Z,80.30
2018-11-05T05:47:28.160Z,82.30
2018-11-05T05:48:28.159Z,80.70
2018-11-05T05:49:28.150Z,83.40
2018-11-05T05:50:28.143Z,83.60
2018-11-05T05:51:28.142Z,81.60
2018-11-05T05:52:28.134Z,82.90
2018-11-05T05:53:28.126Z,85.70
2018-11-05T05:54:28.124Z,80.30
2018-11-05T05:55:28.120Z,80.00
2018-11-05T05:56:28.111Z,79.40
2018-11-05T05:57:28.107Z,81.50
2018-11-05T05:58:28.108Z,77.70
2018-11-05T05:59:28.098Z,81.10
2018-11-05T06:00:28.092Z,80.60
2018-11-05T06:01:28.087Z,84.10
2018-11-05T06:02:28.103Z,86.80
2018-11-05T06:03:28.076Z,78.60
2018-11-05T06:04:28.072Z,82.70
2018-11-05T06:05:28.065Z,80.50
2018-11-05T06:06:28.099Z,85.60
2018-11-05T06:07:28.058Z,84.10
2018-11-05T06:08:28.051Z,81.00
2018-11-05T06:09:28.045Z,81.90
2018-11-05T06:10:28.039Z,79.90
2018-11-05T06:11:28.035Z,80.70
2018-11-05T06:12:28.027Z,84.50
2018-11-05T06:13:28.025Z,81.10
2018-11-05T06:14:28.019Z,87.10
2018-11-05T06:15:28.018Z,83.50
2018-11-05T06:16:28.010Z,84.70
2018-11-05T06:17:28.002Z,83.90
2018-11-05T06:18:28.000Z,76.40
2018-11-05T06:19:27.991Z,81.60
2018-11-05T06:20:27.985Z,83.20
2018-11-05T06:21:27.982Z,79.40
2018-11-05T06:22:27.977Z,78.30
2018-11-05T06:23:28.017Z,79.30
2018-11-05T06:24:27.968Z,79.30
2018-11-05T06:25:27.967Z,77.90
2018-11-05T06:26:27.956Z,76.70
2018-11-05T06:27:27.950Z,75.70
2018-11-05T06:28:27.972Z,78.80
2018-11-05T06:29:27.940Z,75.70
2018-11-05T06:30:27.935Z,78.90
2018-11-05T06:31:27.928Z,74.90
2018-11-05T06:32:27.924Z,76.70
2018-11-05T06:33:27.919Z,75.10
2018-11-05T06:34:27.914Z,81.00
2018-11-05T06:35:28.006Z,75.60
2018-11-05T06:36:27.902Z,71.90
2018-11-05T06:37:27.899Z,73.30
2018-11-05T06:38:27.893Z,71.30
2018-11-05T06:39:27.889Z,72.30
2018-11-05T06:40:27.879Z,74.20
2018-11-05T06:41:28.024Z,67.80
2018-11-05T06:42:27.873Z,67.70
2018-11-05T06:43:27.871Z,66.10
2018-11-05T06:44:27.861Z,68.20
2018-11-05T06:45:27.955Z,70.40
2018-11-05T06:46:27.854Z,67.00
2018-11-05T06:47:27.847Z,70.80
2018-11-05T06:48:27.841Z,68.00
2018-11-05T06:49:27.838Z,71.90
2018-11-05T06:50:27.828Z,71.10
2018-11-05T06:51:27.832Z,69.20
2018-11-05T06:52:27.819Z,70.30
2018-11-05T06:53:27.815Z,73.60
2018-11-05T06:54:27.809Z,67.60
2018-11-05T06:55:27.805Z,70.50
2018-11-05T06:56:27.798Z,69.90
2018-11-05T06:57:27.802Z,67.90
2018-11-05T06:58:27.796Z,68.60
2018-11-05T06:59:27.783Z,72.20
2018-11-05T07:00:27.782Z,70.50
2018-11-05T07:01:27.780Z,65.20
2018-11-05T07:02:27.804Z,69.60
2018-11-05T07:03:27.765Z,68.90
2018-11-05T07:04:27.757Z,72.60
2018-11-05T07:05:27.752Z,70.70
2018-11-05T07:06:27.749Z,69.20
2018-11-05T07:07:27.742Z,67.50
2018-11-05T07:08:27.741Z,69.00
2018-11-05T07:09:27.736Z,66.40
2018-11-05T07:10:27.730Z,68.20
2018-11-05T07:11:27.920Z,66.60
2018-11-05T07:12:27.717Z,69.50
2018-11-05T07:13:27.715Z,67.80
2018-11-05T07:14:27.705Z,66.20
2018-11-05T07:15:27.705Z,68.00
2018-11-05T07:16:27.697Z,63.40
2018-11-05T07:17:27.716Z,63.60
2018-11-05T07:18:27.790Z,65.80
2018-11-05T07:19:27.769Z,67.60
2018-11-05T07:20:27.679Z,67.70
2018-11-05T07:21:27.671Z,67.30
2018-11-05T07:22:27.665Z,65.60
2018-11-05T07:23:27.659Z,70.10
2018-11-05T07:24:27.659Z,68.40
2018-11-05T07:25:27.652Z,66.20
2018-11-05T07:26:27.694Z,68.80
2018-11-05T07:27:27.690Z,68.50
2018-11-05T07:28:27.636Z,70.80
2018-11-05T07:29:27.630Z,69.50
2018-11-05T07:30:27.630Z,69.10
2018-11-05T07:31:27.621Z,68.40
2018-11-05T07:32:27.615Z,70.80
2018-11-05T07:33:27.759Z,72.00
2018-11-05T07:34:27.685Z,72.40
2018-11-05T07:35:27.601Z,72.50
2018-11-05T07:36:27.592Z,66.70
2018-11-05T07:37:27.596Z,73.60
2018-11-05T07:38:27.585Z,68.10
2018-11-05T07:39:27.578Z,68.90
2018-11-05T07:40:27.575Z,68.20
2018-11-05T07:41:27.567Z,66.40
2018-11-05T07:42:27.567Z,67.10
2018-11-05T07:43:27.558Z,70.00
2018-11-05T07:44:27.553Z,69.90
2018-11-05T07:45:27.552Z,67.90
2018-11-05T07:46:27.545Z,68.40
2018-11-05T07:47:27.539Z,68.00
2018-11-05T07:48:27.545Z,65.50
2018-11-05T07:49:27.538Z,70.80
2018-11-05T07:50:27.698Z,67.40
2018-11-05T07:51:27.520Z,66.00
2018-11-05T07:52:27.514Z,69.80
2018-11-05T07:53:27.512Z,68.00
2018-11-05T07:54:27.504Z,68.10
2018-11-05T07:55:27.500Z,64.70
2018-11-05T07:56:27.494Z,67.90
2018-11-05T07:57:27.489Z,68.10
2018-11-05T07:58:27.487Z,70.40
2018-11-05T07:59:27.477Z,63.80
2018-11-05T08:00:27.478Z,63.90
2018-11-05T08:01:27.469Z,63.40
2018-11-05T08:02:27.458Z,65.40
2018-11-05T08:03:27.459Z,64.20
2018-11-05T08:04:27.454Z,62.70
2018-11-05T08:05:27.456Z,61.50
2018-11-05T08:06:27.446Z,62.00
2018-11-05T08:07:27.440Z,63.40
2018-11-05T08:08:27.610Z,60.40
2018-11-05T08:09:27.973Z,63.00
2018-11-05T08:10:27.425Z,62.70
2018-11-05T08:11:27.417Z,65.30
2018-11-05T08:12:27.417Z,64.60
2018-11-05T08:13:27.412Z,61.90
2018-11-05T08:14:27.442Z,63.00
2018-11-05T08:15:27.401Z,61.20
2018-11-05T08:16:27.400Z,58.80
2018-11-05T08:17:27.389Z,58.50
2018-11-05T08:18:27.388Z,62.10
2018-11-05T08:19:27.381Z,60.00
2018-11-05T08:20:27.372Z,59.90
2018-11-05T08:21:27.370Z,61.70
2018-11-05T08:22:27.367Z,58.20
2018-11-05T08:23:27.362Z,60.00
2018-11-05T08:24:27.377Z,58.00
2018-11-05T08:25:27.499Z,59.50
2018-11-05T08:26:27.346Z,59.70
2018-11-05T08:27:27.352Z,60.60
2018-11-05T08:28:27.345Z,61.90
2018-11-05T08:29:27.327Z,62.60
2018-11-05T08:30:28.050Z,60.40
2018-11-05T08:31:27.321Z,62.10
2018-11-05T08:32:27.317Z,58.20
2018-11-05T08:33:27.314Z,63.60
2018-11-05T08:34:27.465Z,61.80
2018-11-05T08:35:27.305Z,58.40
2018-11-05T08:36:27.306Z,58.30
2018-11-05T08:37:27.745Z,61.00
2018-11-05T08:38:27.289Z,58.60
2018-11-05T08:39:27.282Z,58.30
2018-11-05T08:40:27.421Z,60.60
2018-11-05T08:41:27.273Z,57.10
2018-11-05T08:42:27.270Z,62.50
2018-11-05T08:43:27.266Z,59.40
2018-11-05T08:44:27.258Z,59.70
2018-11-05T08:45:27.512Z,58.00
2018-11-05T08:46:27.251Z,56.90
2018-11-05T08:47:27.250Z,62.40
2018-11-05T08:48:27.238Z,60.70
2018-11-05T08:49:27.238Z,59.20
2018-11-05T08:50:27.262Z,60.90
2018-11-05T08:51:27.482Z,59.00
2018-11-05T08:52:27.255Z,58.70
2018-11-05T08:53:27.217Z,58.50
2018-11-05T08:54:27.214Z,59.30
2018-11-05T08:55:27.209Z,56.60
2018-11-05T08:56:27.204Z,59.00
2018-11-05T08:57:27.223Z,58.30
2018-11-05T08:58:27.197Z,60.10
2018-11-05T08:59:27.191Z,57.50
2018-11-05T09:00:27.186Z,60.40
2018-11-05T09:01:27.191Z,57.80
2018-11-05T09:02:27.177Z,55.30
2018-11-05T09:03:27.170Z,56.00
2018-11-05T09:04:27.186Z,57.10
2018-11-05T09:05:27.163Z,54.90
2018-11-05T09:06:27.159Z,54.80
2018-11-05T09:07:27.157Z,56.00
2018-11-05T09:08:27.150Z,55.30
2018-11-05T09:09:27.143Z,52.40
2018-11-05T09:10:27.307Z,50.50
2018-11-05T09:11:27.698Z,51.20
2018-11-05T09:12:27.149Z,52.90
2018-11-05T09:13:27.132Z,53.50
2018-11-05T09:14:27.167Z,54.20
2018-11-05T09:15:27.124Z,55.60
2018-11-05T09:16:27.117Z,53.20
2018-11-05T09:17:27.113Z,54.00
2018-11-05T09:18:27.110Z,53.80
2018-11-05T09:19:27.107Z,51.20
2018-11-05T09:20:27.100Z,52.00
2018-11-05T09:21:27.098Z,53.40
2018-11-05T09:22:27.094Z,56.20
2018-11-05T09:23:27.091Z,56.80
2018-11-05T09:24:27.087Z,57.40
2018-11-05T09:25:27.083Z,54.70
2018-11-05T09:26:27.080Z,56.80
2018-11-05T09:27:27.073Z,55.50
2018-11-05T09:28:27.070Z,53.80
2018-11-05T09:29:27.071Z,51.30
2018-11-05T09:30:27.066Z,55.70
2018-11-05T09:31:27.058Z,53.40
2018-11-05T09:32:27.052Z,51.40
2018-11-05T09:33:27.047Z,54.40
2018-11-05T09:34:27.044Z,52.80
2018-11-05T09:35:27.228Z,52.80
2018-11-05T09:36:27.035Z,52.90
2018-11-05T09:37:27.033Z,53.60
2018-11-05T09:38:27.028Z,52.30
2018-11-05T09:39:27.046Z,53.40
2018-11-05T09:40:27.020Z,52.20
2018-11-05T09:41:27.015Z,52.30
2018-11-05T09:42:27.011Z,56.50
2018-11-05T09:43:27.006Z,55.20
2018-11-05T09:44:27.002Z,53.50
2018-11-05T09:45:26.996Z,57.90
2018-11-05T09:46:26.992Z,51.70
2018-11-05T09:47:26.990Z,52.30
2018-11-05T09:48:26.983Z,51.50
2018-11-05T09:49:27.051Z,55.40
2018-11-05T09:50:27.419Z,56.90
2018-11-05T09:51:26.970Z,56.70
2018-11-05T09:52:26.967Z,55.80
2018-11-05T09:53:27.195Z,55.10
2018-11-05T09:54:26.956Z,57.40
2018-11-05T09:55:26.989Z,57.50
2018-11-05T09:56:27.297Z,56.40
2018-11-05T09:57:26.943Z,60.20
2018-11-05T09:58:26.944Z,56.50
2018-11-05T09:59:26.935Z,53.80
2018-11-05T10:00:26.933Z,60.70
2018-11-05T10:01:26.925Z,59.10
2018-11-05T10:02:26.932Z,56.50
2018-11-05T10:03:27.493Z,54.30
2018-11-05T10:04:27.026Z,57.50
2018-11-05T10:05:26.908Z,58.40
2018-11-05T10:06:26.908Z,54.50
2018-11-05T10:07:26.902Z,54.30
2018-11-05T10:08:26.916Z,58.10
2018-11-05T10:09:26.920Z,55.00
2018-11-05T10:10:26.992Z,55.10
2018-11-05T10:11:26.882Z,53.90
2018-11-05T10:12:26.875Z,55.90
2018-11-05T10:13:26.872Z,54.30
2018-11-05T10:14:26.869Z,55.40
2018-11-05T10:15:26.894Z,54.00
2018-11-05T10:16:26.902Z,54.30
2018-11-05T10:17:26.852Z,52.20
2018-11-05T10:18:26.853Z,55.20
2018-11-05T10:19:26.844Z,55.80
2018-11-05T10:20:26.841Z,53.80
2018-11-05T10:21:26.834Z,55.90
2018-11-05T10:22:26.832Z,52.90
2018-11-05T10:23:26.828Z,54.80
2018-11-05T10:24:26.844Z,52.80
2018-11-05T10:25:26.817Z,54.20
2018-11-05T10:26:27.016Z,55.30
2018-11-05T10:27:26.828Z,51.80
2018-11-05T10:28:26.811Z,51.30
2018-11-05T10:29:26.798Z,54.50
2018-11-05T10:30:26.801Z,51.90
2018-11-05T10:31:26.824Z,51.50
2018-11-05T10:32:26.792Z,55.40
2018-11-05T10:33:26.803Z,52.50
2018-11-05T10:34:26.782Z,51.10
2018-11-05T10:35:26.774Z,52.00
2018-11-05T10:36:26.774Z,53.60
2018-11-05T10:37:26.770Z,55.00
2018-11-05T10:38:26.830Z,50.80
2018-11-05T10:39:26.762Z,50.60
2018-11-05T10:40:26.817Z,54.90
2018-11-05T10:41:26.753Z,48.40
2018-11-05T10:42:27.510Z,52.00
2018-11-05T10:43:26.748Z,50.70
2018-11-05T10:44:26.794Z,47.60
2018-11-05T10:45:26.740Z,48.40
2018-11-05T10:46:26.839Z,47.70
2018-11-05T10:47:26.731Z,45.90
2018-11-05T10:48:26.726Z,46.90
2018-11-05T10:49:26.723Z,45.90
2018-11-05T10:50:26.774Z,48.50
2018-11-05T10:51:26.810Z,46.70
2018-11-05T10:52:26.797Z,47.90
2018-11-05T10:53:26.714Z,45.20
2018-11-05T10:54:26.708Z,47.90
2018-11-05T10:55:26.706Z,45.20
2018-11-05T10:56:26.697Z,48.10
2018-11-05T10:57:26.696Z,46.60
2018-11-05T10:58:26.693Z,44.60
2018-11-05T10:59:26.692Z,47.50
2018-11-05T11:00:26.684Z,46.10
2018-11-05T11:01:26.686Z,45.30
2018-11-05T11:02:26.677Z,48.00
2018-11-05T11:03:26.678Z,47.10
2018-11-05T11:04:26.916Z,42.30
2018-11-05T11:05:26.666Z,42.60
2018-11-05T11:06:26.663Z,45.50
2018-11-05T11:07:26.661Z,44.80
2018-11-05T11:08:26.656Z,44.70
2018-11-05T11:09:26.662Z,42.40
2018-11-05T11:10:26.668Z,43.70
2018-11-05T11:11:26.717Z,41.30
2018-11-05T11:12:26.873Z,45.10
2018-11-05T11:13:26.798Z,45.60
2018-11-05T11:14:26.780Z,42.40
2018-11-05T11:15:26.754Z,45.70
2018-11-05T11:16:26.723Z,42.50
2018-11-05T11:17:26.696Z,42.40
2018-11-05T11:18:26.703Z,42.00
2018-11-05T11:19:26.635Z,42.20
2018-11-05T11:20:26.793Z,44.00
2018-11-05T11:21:26.614Z,44.00
2018-11-05T11:22:26.611Z,44.40
2018-11-05T11:23:26.667Z,43.60
2018-11-05T11:24:26.604Z,43.90
2018-11-05T11:25:26.602Z,42.50
2018-11-05T11:26:26.605Z,43.20
2018-11-05T11:27:26.596Z,42.20
2018-11-05T11:28:26.716Z,42.50
2018-11-05T11:29:27.646Z,41.10
2018-11-05T11:30:26.586Z,43.90
2018-11-05T11:31:26.582Z,44.70
2018-11-05T11:32:26.580Z,43.20
2018-11-05T11:33:26.576Z,43.90
2018-11-05T11:34:26.580Z,42.70
2018-11-05T11:35:26.649Z,42.40
2018-11-05T11:36:26.580Z,42.20
2018-11-05T11:37:26.566Z,42.60
2018-11-05T11:38:26.561Z,41.00
2018-11-05T11:39:26.558Z,43.60
2018-11-05T11:40:26.554Z,43.20
2018-11-05T11:41:26.613Z,43.70
2018-11-05T11:42:26.549Z,41.10
2018-11-05T11:43:26.828Z,42.40
2018-11-05T11:44:26.544Z,42.60
2018-11-05T11:45:26.543Z,41.60
2018-11-05T11:46:26.537Z,41.80
2018-11-05T11:47:27.105Z,42.10
2018-11-05T11:48:26.534Z,43.60
2018-11-05T11:49:26.528Z,42.60
2018-11-05T11:50:26.523Z,44.00
2018-11-05T11:51:26.540Z,45.60
2018-11-05T11:52:26.540Z,41.00
2018-11-05T11:53:26.646Z,44.10
2018-11-05T11:54:26.511Z,41.60
2018-11-05T11:55:26.514Z,42.70
2018-11-05T11:56:26.512Z,44.50
2018-11-05T11:57:26.592Z,43.70
2018-11-05T11:58:26.503Z,43.10
2018-11-05T11:59:26.498Z,43.90
2018-11-05T12:00:26.501Z,43.10
2018-11-05T12:01:26.490Z,43.10
2018-11-05T12:02:26.992Z,44.50
2018-11-05T12:03:26.939Z,43.20
2018-11-05T12:04:26.567Z,45.10
2018-11-05T12:05:26.640Z,43.80
2018-11-05T12:06:26.474Z,45.00
2018-11-05T12:07:26.472Z,45.60
2018-11-05T12:08:26.614Z,44.00
2018-11-05T12:09:26.467Z,44.20
2018-11-05T12:10:26.467Z,41.90
2018-11-05T12:11:26.705Z,40.90
2018-11-05T12:12:26.458Z,43.90
2018-11-05T12:13:27.040Z,43.10
2018-11-05T12:14:26.522Z,44.80
2018-11-05T12:15:26.601Z,45.60
2018-11-05T12:16:26.454Z,44.40
2018-11-05T12:17:26.444Z,44.60
2018-11-05T12:18:26.443Z,46.60
2018-11-05T12:19:26.461Z,45.90
2018-11-05T12:20:26.491Z,44.80
2018-11-05T12:21:26.433Z,44.20
2018-11-05T12:22:26.430Z,43.50
2018-11-05T12:23:26.426Z,45.60
2018-11-05T12:24:26.470Z,43.90
2018-11-05T12:25:26.462Z,45.30
2018-11-05T12:27:26.690Z,42.50
2018-11-05T12:28:26.413Z,47.50
2018-11-05T12:29:26.409Z,47.40
2018-11-05T12:30:26.445Z,48.90
2018-11-05T12:31:26.409Z,46.60
2018-11-05T12:32:26.543Z,45.20
2018-11-05T12:33:26.933Z,42.70
2018-11-05T12:34:26.585Z,46.20
2018-11-05T12:35:26.838Z,45.20
2018-11-05T12:36:26.607Z,46.50
2018-11-05T12:37:27.441Z,44.30
2018-11-05T12:38:26.388Z,43.10
2018-11-05T12:39:26.381Z,45.10
2018-11-05T12:40:26.869Z,45.70
2018-11-05T12:41:26.460Z,45.70
2018-11-05T12:42:26.410Z,46.30
2018-11-05T12:44:26.922Z,41.80
2018-11-05T12:45:26.391Z,46.90